createdAt,value
2023-02-12T00:00:52.926Z,34.70
2023-02-12T00:05:55.541Z,43.30
2023-02-12T00:10:57.112Z,42.40
2023-02-12T00:15:58.803Z,45.28
2023-02-12T00:21:01.265Z,39.33
2023-02-12T00:26:11.203Z,40.17
2023-02-12T00:31:18.618Z,48.67
2023-02-12T00:36:22.679Z,47.50
2023-02-12T00:41:25.102Z,42.03
2023-02-12T00:46:26.641Z,42.97
2023-02-12T00:51:28.009Z,41.38
2023-02-12T00:56:29.339Z,43.60
2023-02-12T01:01:30.821Z,37.58
2023-02-12T01:06:32.221Z,37.83
2023-02-12T01:11:33.580Z,44.75
2023-02-12T01:16:36.555Z,38.40
2023-02-12T01:21:38.194Z,43.22
2023-02-12T01:26:39.600Z,39.35
2023-02-12T01:31:42.274Z,44.30
2023-02-12T01:36:43.803Z,37.40
2023-02-12T01:41:45.763Z,38.90
2023-02-12T01:46:59.044Z,44.28
2023-02-12T01:52:15.700Z,41.50
2023-02-12T01:57:18.197Z,41.47
2023-02-12T02:02:19.731Z,38.10
2023-02-12T02:07:21.085Z,42.17
2023-02-12T02:12:41.348Z,38.63
2023-02-12T02:17:58.188Z,36.03
2023-02-12T02:23:17.699Z,40.80
2023-02-12T02:28:42.563Z,43.20
2023-02-12T02:33:56.404Z,36.25
2023-02-12T02:39:15.809Z,41.60
2023-02-12T02:44:23.355Z,42.65
2023-02-12T02:49:34.568Z,46.88
2023-02-12T02:54:47.537Z,37.95
2023-02-12T03:00:03.972Z,39.63
2023-02-12T03:05:26.693Z,40.67
2023-02-12T03:10:36.617Z,45.00
2023-02-12T03:15:44.576Z,40.45
2023-02-12T03:20:51.513Z,40.10
2023-02-12T03:25:58.731Z,40.67
2023-02-12T03:31:29.370Z,36.25
2023-02-12T03:36:41.286Z,38.50
2023-02-12T03:42:07.418Z,42.15
2023-02-12T03:47:20.717Z,38.65
2023-02-12T03:52:22.380Z,36.13
2023-02-12T03:57:30.593Z,41.08
2023-02-12T04:02:32.383Z,34.90
2023-02-12T04:07:36.731Z,40.63
2023-02-12T04:12:43.868Z,37.72
2023-02-12T04:18:02.584Z,40.85
2023-02-12T04:23:29.851Z,37.70
2023-02-12T04:28:42.920Z,40.33
2023-02-12T04:34:03.744Z,37.05
2023-02-12T04:39:11.163Z,42.33
2023-02-12T04:44:23.670Z,42.25
2023-02-12T04:49:25.545Z,40.88
2023-02-12T04:54:26.958Z,38.45
2023-02-12T04:59:28.412Z,37.22
2023-02-12T05:04:29.743Z,38.92
2023-02-12T05:09:31.090Z,37.90
2023-02-12T05:14:32.421Z,37.90
2023-02-12T05:19:33.767Z,38.45
2023-02-12T05:24:35.181Z,40.42
2023-02-12T05:29:36.694Z,35.17
2023-02-12T05:34:38.166Z,36.17
2023-02-12T05:39:39.610Z,38.45
2023-02-12T05:44:40.946Z,38.35
2023-02-12T05:49:42.817Z,36.05
2023-02-12T05:54:44.211Z,38.90
2023-02-12T05:59:45.608Z,40.35
2023-02-12T06:04:48.597Z,38.67
2023-02-12T06:09:50.607Z,42.50
2023-02-12T06:14:51.966Z,38.03
2023-02-12T06:19:53.269Z,38.78
2023-02-12T06:24:54.618Z,41.30
2023-02-12T06:29:55.963Z,35.72
2023-02-12T06:34:57.335Z,39.80
2023-02-12T06:39:58.677Z,36.05
2023-02-12T06:45:00.008Z,38.83
2023-02-12T06:50:01.410Z,35.58
2023-02-12T06:55:02.848Z,36.70
2023-02-12T07:00:04.945Z,39.15
2023-02-12T07:05:06.554Z,40.88
2023-02-12T07:10:08.700Z,47.50
2023-02-12T07:15:11.019Z,42.63
2023-02-12T07:20:12.826Z,41.28
2023-02-12T07:25:14.486Z,44.90
2023-02-12T07:30:16.033Z,45.58
2023-02-12T07:35:17.437Z,48.83
2023-02-12T07:40:18.839Z,48.08
2023-02-12T07:45:20.177Z,43.85
2023-02-12T07:50:21.683Z,47.88
2023-02-12T07:55:23.089Z,42.92
2023-02-12T08:00:24.604Z,52.22
2023-02-12T08:05:27.800Z,45.28
2023-02-12T08:10:32.271Z,43.53
2023-02-12T08:15:33.777Z,50.45
2023-02-12T08:20:35.151Z,49.28
2023-02-12T08:25:36.542Z,45.35
2023-02-12T08:30:37.987Z,48.35
2023-02-12T08:35:39.350Z,47.38
2023-02-12T08:40:43.015Z,50.42
2023-02-12T08:45:44.518Z,51.78
2023-02-12T08:50:46.554Z,63.60
2023-02-12T08:55:49.704Z,48.58
2023-02-12T09:00:51.160Z,47.38
2023-02-12T09:05:53.024Z,44.00
2023-02-12T09:10:54.445Z,48.83
2023-02-12T09:15:56.332Z,44.63
2023-02-12T09:21:07.453Z,48.50
2023-02-12T09:26:11.816Z,54.97
2023-02-12T09:31:15.717Z,53.10
2023-02-12T09:36:17.445Z,47.20
2023-02-12T09:41:46.518Z,48.33
2023-02-12T09:46:59.979Z,52.58
2023-02-12T09:52:02.832Z,51.92
2023-02-12T09:57:14.189Z,56.88
2023-02-12T10:02:17.865Z,54.00
2023-02-12T10:07:47.077Z,58.28
2023-02-12T10:12:57.634Z,58.15
2023-02-12T10:18:20.104Z,62.70
2023-02-12T10:23:59.700Z,64.47
2023-02-12T10:29:36.950Z,60.83
2023-02-12T10:34:41.212Z,55.78
2023-02-12T10:39:48.775Z,60.92
2023-02-12T10:49:59.743Z,63.75
2023-02-12T10:55:01.615Z,62.00
2023-02-12T11:00:26.927Z,61.85
2023-02-12T11:05:30.922Z,60.50
2023-02-12T11:10:38.571Z,62.53
2023-02-12T11:15:48.742Z,62.65
2023-02-12T11:20:52.565Z,56.65
2023-02-12T11:26:00.248Z,58.40
2023-02-12T11:31:23.831Z,59.80
2023-02-12T11:36:27.514Z,62.15
2023-02-12T11:41:39.548Z,64.45
2023-02-12T11:46:49.710Z,59.80
2023-02-12T11:51:51.868Z,63.53
2023-02-12T11:56:55.282Z,57.35
2023-02-12T12:02:01.598Z,61.40
2023-02-12T12:07:13.857Z,55.22
2023-02-12T12:12:53.049Z,52.45
2023-02-12T12:18:17.554Z,55.40
2023-02-12T12:23:24.018Z,49.83
2023-02-12T12:28:41.260Z,48.08
2023-02-12T12:34:03.341Z,44.67
2023-02-12T12:39:21.409Z,42.00
2023-02-12T12:44:35.531Z,40.75
2023-02-12T12:50:08.470Z,39.67
2023-02-12T12:55:31.664Z,45.13
2023-02-12T13:00:33.035Z,44.63
2023-02-12T13:05:53.443Z,34.90
2023-02-12T13:11:06.379Z,34.90
2023-02-12T13:16:16.634Z,33.10
2023-02-12T13:21:27.147Z,31.55
2023-02-12T13:26:42.814Z,32.22
2023-02-12T13:31:58.033Z,30.10
2023-02-12T13:37:06.619Z,26.60
2023-02-12T13:42:07.969Z,25.02
2023-02-12T13:47:48.087Z,23.88
2023-02-12T13:52:59.597Z,25.70
2023-02-12T13:58:34.883Z,22.42
2023-02-12T14:03:38.000Z,23.15
2023-02-12T14:08:42.387Z,23.65
2023-02-12T14:13:56.348Z,22.25
2023-02-12T14:19:35.460Z,17.70
2023-02-12T14:24:36.797Z,18.35
2023-02-12T14:29:38.146Z,23.02
2023-02-12T14:34:39.589Z,22.30
2023-02-12T14:39:41.108Z,23.63
2023-02-12T14:44:46.792Z,18.10
2023-02-12T14:49:55.636Z,12.40
2023-02-12T14:55:18.158Z,11.38
2023-02-12T15:00:32.294Z,19.63
2023-02-12T15:05:41.523Z,14.68
2023-02-12T15:10:49.740Z,21.63
2023-02-12T15:16:22.049Z,10.57
2023-02-12T15:21:27.850Z,11.07
2023-02-12T15:26:33.284Z,11.32
2023-02-12T15:31:35.301Z,12.65
2023-02-12T15:36:37.983Z,15.48
2023-02-12T15:41:40.361Z,19.13
2023-02-12T15:46:53.502Z,21.33
2023-02-12T15:51:56.429Z,20.30
2023-02-12T15:56:58.197Z,22.60
2023-02-12T16:02:03.278Z,21.73
2023-02-12T16:07:04.790Z,22.45
2023-02-12T16:12:12.170Z,21.80
2023-02-12T16:17:21.176Z,21.48
2023-02-12T16:22:27.321Z,20.52
2023-02-12T16:27:31.500Z,22.20
2023-02-12T16:32:38.920Z,19.58
2023-02-12T16:37:44.018Z,19.48
2023-02-12T16:42:48.454Z,18.27
2023-02-12T16:47:51.161Z,18.63
2023-02-12T16:53:03.281Z,20.98
2023-02-12T16:58:04.631Z,25.00
2023-02-12T17:03:06.037Z,27.25
2023-02-12T17:08:16.030Z,21.73
2023-02-12T17:13:18.107Z,21.15
2023-02-12T17:18:20.314Z,22.15
2023-02-12T17:23:22.794Z,17.23
2023-02-12T17:28:25.345Z,16.75
2023-02-12T17:33:27.613Z,19.92
2023-02-12T17:38:29.019Z,17.13
2023-02-12T17:43:30.344Z,20.65
2023-02-12T17:48:31.848Z,17.63
2023-02-12T17:53:33.180Z,17.27
2023-02-12T17:58:34.537Z,15.75
2023-02-12T18:03:36.355Z,17.35
2023-02-12T18:08:37.696Z,15.27
2023-02-12T18:13:39.466Z,15.60
2023-02-12T18:18:40.988Z,15.50
2023-02-12T18:23:42.973Z,12.52
2023-02-12T18:28:45.243Z,9.93
2023-02-12T18:33:46.703Z,10.02
2023-02-12T18:38:49.765Z,9.60
2023-02-12T18:43:51.618Z,6.38
2023-02-12T18:48:53.857Z,8.48
2023-02-12T18:54:05.272Z,10.32
2023-02-12T18:59:08.106Z,9.13
2023-02-12T19:04:12.637Z,10.43
2023-02-12T19:09:16.589Z,12.10
2023-02-12T19:14:19.480Z,8.52
2023-02-12T19:19:21.644Z,13.43
2023-02-12T19:24:23.100Z,10.38
2023-02-12T19:29:24.777Z,11.07
2023-02-12T19:34:27.149Z,11.68
2023-02-12T19:39:28.752Z,11.55
2023-02-12T19:44:30.093Z,10.80
2023-02-12T19:49:31.517Z,10.45
2023-02-12T19:54:32.964Z,10.80
2023-02-12T19:59:35.347Z,11.45
2023-02-12T20:04:36.849Z,10.70
2023-02-12T20:09:38.493Z,10.35
2023-02-12T20:14:39.812Z,10.57
2023-02-12T20:19:41.147Z,10.40
2023-02-12T20:24:42.565Z,8.95
2023-02-12T20:29:43.961Z,9.88
2023-02-12T20:34:50.827Z,10.23
2023-02-12T20:39:52.628Z,13.25
2023-02-12T20:44:53.999Z,9.40
2023-02-12T20:49:56.683Z,8.95
2023-02-12T20:54:58.262Z,9.52
2023-02-12T20:59:59.603Z,10.60
2023-02-12T21:05:00.967Z,11.05
2023-02-12T21:10:02.291Z,11.73
2023-02-12T21:15:03.929Z,9.98
2023-02-12T21:20:07.083Z,11.07
2023-02-12T21:25:08.450Z,11.20
2023-02-12T21:30:10.137Z,11.13
2023-02-12T21:35:11.606Z,11.13
2023-02-12T21:40:13.115Z,14.85
2023-02-12T21:45:19.038Z,11.77
2023-02-12T21:50:20.946Z,11.02
2023-02-12T21:55:22.322Z,10.68
2023-02-12T22:00:23.743Z,12.68
2023-02-12T22:05:25.219Z,12.60
2023-02-12T22:10:27.757Z,11.45
2023-02-12T22:15:29.130Z,9.27
2023-02-12T22:20:30.492Z,12.70
2023-02-12T22:25:33.395Z,13.40
2023-02-12T22:30:34.753Z,13.65
2023-02-12T22:35:36.115Z,14.60
2023-02-12T22:40:37.554Z,13.00
2023-02-12T22:45:43.563Z,10.55
2023-02-12T22:50:44.942Z,13.15
2023-02-12T22:55:46.307Z,16.55
2023-02-12T23:00:47.685Z,13.48
2023-02-12T23:05:48.998Z,12.85
2023-02-12T23:10:50.385Z,15.48
2023-02-12T23:15:51.923Z,12.55
2023-02-12T23:20:53.832Z,13.68
2023-02-12T23:25:55.544Z,14.65
2023-02-12T23:30:57.385Z,13.00
2023-02-12T23:35:59.192Z,13.85
2023-02-12T23:41:00.954Z,13.07
2023-02-12T23:46:02.473Z,10.90
2023-02-12T23:51:04.381Z,13.18
2023-02-12T23:56:06.797Z,11.45
